Terminal Aerodrome Forecast
Issued by NWS Topeka, KS

Home | Current Version | Previous Version | Text Only | Print | Product List | Glossary On
Versions: 1 2 3 4 5 6 7 8 9 10 11 12 13 14 15 16
000
FTUS43 KTOP 040500
TAFTOP
TAF
KTOP 040520Z 0406/0506 18007KT P6SM SCT120 WS020/19030KT
     FM040900 18008KT P6SM VCTS BKN120CB
     FM041400 18010KT P6SM SCT040 BKN120=

USA.gov is the U.S. government's official web portal to all federal, state and local government web resources and services.